createdAt,value
2023-05-05T00:02:01.684Z,7.32
2023-05-05T00:04:28.169Z,9.38
2023-05-05T00:06:54.473Z,8.60
2023-05-05T00:09:21.448Z,9.68
2023-05-05T00:11:47.761Z,9.02
2023-05-05T00:14:14.219Z,7.72
2023-05-05T00:16:40.575Z,9.02
2023-05-05T00:19:06.941Z,6.63
2023-05-05T00:21:33.246Z,8.35
2023-05-05T00:23:59.548Z,7.60
2023-05-05T00:26:25.868Z,8.13
2023-05-05T00:28:52.172Z,7.35
2023-05-05T00:31:18.507Z,11.93
2023-05-05T00:33:44.847Z,8.18
2023-05-05T00:36:11.155Z,8.75
2023-05-05T00:38:37.547Z,6.40
2023-05-05T00:41:03.967Z,13.10
2023-05-05T00:43:30.322Z,14.50
2023-05-05T00:46:09.559Z,6.55
2023-05-05T00:48:36.145Z,6.18
2023-05-05T00:51:02.464Z,8.93
2023-05-05T00:53:28.895Z,7.03
2023-05-05T00:55:55.254Z,6.85
2023-05-05T00:58:21.690Z,8.48
2023-05-05T01:00:48.002Z,6.05
2023-05-05T01:03:14.369Z,9.13
2023-05-05T01:06:11.714Z,10.02
2023-05-05T01:08:43.880Z,7.03
2023-05-05T01:11:23.891Z,7.30
2023-05-05T01:14:05.900Z,8.60
2023-05-05T01:16:34.197Z,8.70
2023-05-05T01:19:14.434Z,10.52
2023-05-05T01:21:53.263Z,9.35
2023-05-05T01:24:31.712Z,7.30
2023-05-05T01:27:19.838Z,7.30
2023-05-05T01:30:30.541Z,7.55
2023-05-05T01:33:03.749Z,6.82
2023-05-05T01:35:41.164Z,8.80
2023-05-05T01:38:24.808Z,9.05
2023-05-05T01:41:03.571Z,7.20
2023-05-05T01:43:35.444Z,7.95
2023-05-05T01:46:03.510Z,10.82
2023-05-05T01:48:30.881Z,6.53
2023-05-05T01:50:58.655Z,9.00
2023-05-05T01:53:27.081Z,9.98
2023-05-05T01:55:55.352Z,9.30
2023-05-05T01:58:23.332Z,9.35
2023-05-05T02:00:51.246Z,10.07
2023-05-05T02:03:19.597Z,8.77
2023-05-05T02:05:47.457Z,8.95
2023-05-05T02:08:15.571Z,9.27
2023-05-05T02:10:43.220Z,7.40
2023-05-05T02:13:11.787Z,9.32
2023-05-05T02:15:39.295Z,9.15
2023-05-05T02:18:06.736Z,11.73
2023-05-05T02:20:33.972Z,9.48
2023-05-05T02:23:00.332Z,6.70
2023-05-05T02:25:35.309Z,9.75
2023-05-05T02:28:03.648Z,7.78
2023-05-05T02:30:34.672Z,9.20
2023-05-05T02:33:07.001Z,7.40
2023-05-05T02:35:38.785Z,9.30
2023-05-05T02:38:09.471Z,7.88
2023-05-05T02:40:36.901Z,6.90
2023-05-05T02:43:09.738Z,7.10
2023-05-05T02:45:36.219Z,6.68
2023-05-05T02:48:03.600Z,7.85
2023-05-05T02:50:31.305Z,8.50
2023-05-05T02:53:01.063Z,9.43
2023-05-05T02:55:37.442Z,6.43
2023-05-05T02:58:09.247Z,8.95
2023-05-05T03:00:57.608Z,7.55
2023-05-05T03:03:38.469Z,6.05
2023-05-05T03:06:17.488Z,8.77
2023-05-05T03:09:09.633Z,6.75
2023-05-05T03:11:40.317Z,5.88
2023-05-05T03:14:12.783Z,11.70
2023-05-05T03:16:41.734Z,9.35
2023-05-05T03:19:11.107Z,9.02
2023-05-05T03:21:38.981Z,6.25
2023-05-05T03:24:15.718Z,11.23
2023-05-05T03:26:43.277Z,9.05
2023-05-05T03:29:09.933Z,6.65
2023-05-05T03:31:36.492Z,6.50
2023-05-05T03:34:03.295Z,5.82
2023-05-05T03:36:30.004Z,7.55
2023-05-05T03:38:56.464Z,7.60
2023-05-05T03:41:22.795Z,8.75
2023-05-05T03:43:49.348Z,6.20
2023-05-05T03:46:15.904Z,7.25
2023-05-05T03:48:42.913Z,9.77
2023-05-05T03:51:09.468Z,6.50
2023-05-05T03:53:36.012Z,9.52
2023-05-05T03:56:02.375Z,9.10
2023-05-05T03:58:28.709Z,15.18
2023-05-05T04:00:55.005Z,10.70
2023-05-05T04:03:21.487Z,9.75
2023-05-05T04:05:47.953Z,7.93
2023-05-05T04:08:14.286Z,9.60
2023-05-05T04:10:40.603Z,7.25
2023-05-05T04:13:06.965Z,9.48
2023-05-05T04:15:33.270Z,9.13
2023-05-05T04:17:59.625Z,7.60
2023-05-05T04:20:26.092Z,7.32
2023-05-05T04:22:52.857Z,8.38
2023-05-05T04:25:19.227Z,10.70
2023-05-05T04:27:45.541Z,8.00
2023-05-05T04:30:12.036Z,9.50
2023-05-05T04:32:38.402Z,8.45
2023-05-05T04:35:05.112Z,8.35
2023-05-05T04:37:31.439Z,11.77
2023-05-05T04:39:57.735Z,11.18
2023-05-05T04:42:24.083Z,7.40
2023-05-05T04:44:50.427Z,10.40
2023-05-05T04:47:16.890Z,9.27
2023-05-05T04:49:43.178Z,12.32
2023-05-05T04:52:12.088Z,7.65
2023-05-05T04:54:38.389Z,8.35
2023-05-05T04:57:04.753Z,10.48
2023-05-05T04:59:31.104Z,7.07
2023-05-05T05:01:57.430Z,8.07
2023-05-05T05:04:23.886Z,8.32
2023-05-05T05:06:50.171Z,10.00
2023-05-05T05:09:16.477Z,7.35
2023-05-05T05:11:42.778Z,8.13
2023-05-05T05:14:09.179Z,7.53
2023-05-05T05:16:35.533Z,6.32
2023-05-05T05:19:02.067Z,7.55
2023-05-05T05:21:28.410Z,9.18
2023-05-05T05:23:54.732Z,8.07
2023-05-05T05:26:21.083Z,9.90
2023-05-05T05:28:47.407Z,7.97
2023-05-05T05:31:13.788Z,9.43
2023-05-05T05:33:40.089Z,11.70
2023-05-05T05:36:06.478Z,8.90
2023-05-05T05:38:32.773Z,5.82
2023-05-05T05:40:59.133Z,9.23
2023-05-05T05:43:25.537Z,7.90
2023-05-05T05:45:51.985Z,7.43
2023-05-05T05:48:18.369Z,13.98
2023-05-05T05:50:44.652Z,7.18
2023-05-05T05:53:10.972Z,5.93
2023-05-05T05:55:37.266Z,8.68
2023-05-05T05:58:03.587Z,11.93
2023-05-05T06:00:29.969Z,9.45
2023-05-05T06:02:56.383Z,9.68
2023-05-05T06:05:22.739Z,7.18
2023-05-05T06:07:49.043Z,9.15
2023-05-05T06:10:27.528Z,12.35
2023-05-05T06:12:54.575Z,10.30
2023-05-05T06:15:20.913Z,12.38
2023-05-05T06:17:47.227Z,10.70
2023-05-05T06:20:13.555Z,11.00
2023-05-05T06:22:39.862Z,9.25
2023-05-05T06:25:06.727Z,11.52
2023-05-05T06:27:33.052Z,8.43
2023-05-05T06:29:59.339Z,15.13
2023-05-05T06:32:25.698Z,6.97
2023-05-05T06:34:51.996Z,9.35
2023-05-05T06:37:18.296Z,10.50
2023-05-05T06:39:44.632Z,10.65
2023-05-05T06:42:10.953Z,9.00
2023-05-05T06:44:37.249Z,8.68
2023-05-05T06:47:03.991Z,10.20
2023-05-05T06:49:30.360Z,6.82
2023-05-05T06:51:56.645Z,10.23
2023-05-05T06:54:23.026Z,9.60
2023-05-05T06:56:49.311Z,15.25
2023-05-05T06:59:15.608Z,15.40
2023-05-05T07:01:42.163Z,12.43
2023-05-05T07:04:08.517Z,15.40
2023-05-05T07:06:34.837Z,14.13
2023-05-05T07:09:01.141Z,16.52
2023-05-05T07:11:27.491Z,13.25
2023-05-05T07:13:53.777Z,10.35
2023-05-05T07:16:20.071Z,13.90
2023-05-05T07:18:46.383Z,15.27
2023-05-05T07:21:12.662Z,22.83
2023-05-05T07:23:39.001Z,15.90
2023-05-05T07:26:05.385Z,13.05
2023-05-05T07:28:31.680Z,14.93
2023-05-05T07:30:58.004Z,12.80
2023-05-05T07:33:24.302Z,13.40
2023-05-05T07:35:50.675Z,14.55
2023-05-05T07:38:16.978Z,18.33
2023-05-05T07:40:43.280Z,16.80
2023-05-05T07:43:09.595Z,10.88
2023-05-05T07:45:35.920Z,9.57
2023-05-05T07:48:02.318Z,12.65
2023-05-05T07:50:28.643Z,17.23
2023-05-05T07:53:05.765Z,12.40
2023-05-05T07:55:36.836Z,18.35
2023-05-05T07:58:03.175Z,16.08
2023-05-05T08:00:29.753Z,11.50
2023-05-05T08:02:56.179Z,12.93
2023-05-05T08:05:22.592Z,12.55
2023-05-05T08:07:48.931Z,10.38
2023-05-05T08:10:15.264Z,15.40
2023-05-05T08:12:41.591Z,10.52
2023-05-05T08:15:08.632Z,11.75
2023-05-05T08:17:49.386Z,11.05
2023-05-05T08:20:16.701Z,11.63
2023-05-05T08:22:43.088Z,13.25
2023-05-05T08:25:10.140Z,13.40
2023-05-05T08:27:38.204Z,15.07
2023-05-05T08:30:05.432Z,13.40
2023-05-05T08:32:31.981Z,16.58
2023-05-05T08:34:58.314Z,16.75
2023-05-05T08:37:24.704Z,15.52
2023-05-05T08:39:51.038Z,18.27
2023-05-05T08:42:25.778Z,12.82
2023-05-05T08:44:59.598Z,13.07
2023-05-05T08:47:26.004Z,12.55
2023-05-05T08:49:54.478Z,15.57
2023-05-05T08:52:23.747Z,15.60
2023-05-05T08:54:54.723Z,14.48
2023-05-05T08:57:28.268Z,15.18
2023-05-05T08:59:56.766Z,19.17
2023-05-05T09:02:24.152Z,16.00
2023-05-05T09:04:52.203Z,11.27
2023-05-05T09:07:18.720Z,16.25
2023-05-05T09:09:45.942Z,16.38
2023-05-05T09:12:12.316Z,13.93
2023-05-05T09:14:38.627Z,17.50
2023-05-05T09:17:04.980Z,16.73
2023-05-05T09:19:31.328Z,17.75
2023-05-05T09:21:57.644Z,13.40
2023-05-05T09:24:23.980Z,18.58
2023-05-05T09:26:51.532Z,14.70
2023-05-05T09:29:19.282Z,16.95
2023-05-05T09:32:03.535Z,18.60
2023-05-05T09:34:29.909Z,14.93
2023-05-05T09:36:56.228Z,18.65
2023-05-05T09:39:22.586Z,22.08
2023-05-05T09:41:48.919Z,17.95
2023-05-05T09:44:15.384Z,17.63
2023-05-05T09:46:52.211Z,19.73
2023-05-05T09:49:21.328Z,20.75
2023-05-05T09:51:48.912Z,20.17
2023-05-05T09:54:28.076Z,22.88
2023-05-05T09:56:56.225Z,21.35
2023-05-05T09:59:23.537Z,26.35
2023-05-05T10:01:51.221Z,22.60
2023-05-05T10:04:28.871Z,20.40
2023-05-05T10:06:56.626Z,25.70
2023-05-05T10:09:24.145Z,23.95
2023-05-05T10:11:51.482Z,23.10
2023-05-05T10:14:18.729Z,27.95
2023-05-05T10:16:49.953Z,23.95
2023-05-05T10:19:21.079Z,23.60
2023-05-05T10:21:50.814Z,21.30
2023-05-05T10:24:35.756Z,29.58
2023-05-05T10:27:05.027Z,29.48
2023-05-05T10:29:48.046Z,24.83
2023-05-05T10:32:51.543Z,23.35
2023-05-05T10:35:16.519Z,27.77
2023-05-05T10:37:44.732Z,23.30
2023-05-05T10:40:13.276Z,27.98
2023-05-05T10:42:39.655Z,26.27
2023-05-05T10:45:06.970Z,27.00
2023-05-05T10:47:34.440Z,22.00
2023-05-05T10:50:26.728Z,24.23
2023-05-05T10:53:28.508Z,25.40
2023-05-05T10:56:22.447Z,26.08
2023-05-05T10:58:59.276Z,27.50
2023-05-05T11:01:34.976Z,24.08
2023-05-05T11:07:08.773Z,21.58
2023-05-05T11:10:00.691Z,23.05
2023-05-05T11:12:29.475Z,22.98
2023-05-05T11:15:23.968Z,25.55
2023-05-05T11:17:50.515Z,24.33
2023-05-05T11:20:16.952Z,15.65
2023-05-05T11:23:01.852Z,17.98
2023-05-05T11:25:34.363Z,15.95
2023-05-05T11:28:08.825Z,16.77
2023-05-05T11:30:56.035Z,22.27
2023-05-05T11:33:32.973Z,24.90
2023-05-05T11:36:06.791Z,26.55
2023-05-05T11:38:48.640Z,23.23
2023-05-05T11:41:30.228Z,25.80
2023-05-05T11:44:09.999Z,25.42
2023-05-05T11:46:36.708Z,27.73
2023-05-05T11:49:03.162Z,17.88
2023-05-05T11:51:30.118Z,22.92
2023-05-05T11:53:58.456Z,19.10
2023-05-05T11:56:25.416Z,18.08
2023-05-05T11:59:10.484Z,15.68
2023-05-05T12:04:13.870Z,18.55
2023-05-05T12:06:40.805Z,23.95
2023-05-05T12:09:20.841Z,19.65
2023-05-05T12:11:58.685Z,21.25
2023-05-05T12:14:25.728Z,20.77
2023-05-05T12:16:58.656Z,15.40
2023-05-05T12:19:25.050Z,13.68
2023-05-05T12:21:51.365Z,11.32
2023-05-05T12:24:17.750Z,10.27
2023-05-05T12:26:44.151Z,8.23
2023-05-05T12:29:10.484Z,9.18
2023-05-05T12:31:40.923Z,7.82
2023-05-05T12:34:09.611Z,8.85
2023-05-05T12:36:37.057Z,7.38
2023-05-05T12:39:04.598Z,6.18
2023-05-05T12:41:31.852Z,7.18
2023-05-05T12:43:59.254Z,6.03
2023-05-05T12:46:26.616Z,4.13
2023-05-05T12:49:00.506Z,4.25
2023-05-05T12:51:27.380Z,3.28
2023-05-05T12:54:05.602Z,4.15
2023-05-05T12:56:41.114Z,6.90
2023-05-05T12:59:12.259Z,4.32
2023-05-05T13:01:58.796Z,3.38
2023-05-05T13:04:26.210Z,5.75
2023-05-05T13:07:13.157Z,3.63
2023-05-05T13:09:39.837Z,4.70
2023-05-05T13:12:06.415Z,3.13
2023-05-05T13:14:32.753Z,2.70
2023-05-05T13:16:59.124Z,3.33
2023-05-05T13:19:25.519Z,3.50
2023-05-05T13:21:52.847Z,6.93
2023-05-05T13:24:28.530Z,7.43
2023-05-05T13:27:01.153Z,11.52
2023-05-05T13:29:31.055Z,8.73
2023-05-05T13:31:58.016Z,10.02
2023-05-05T13:34:24.357Z,9.20
2023-05-05T13:36:50.653Z,11.55
2023-05-05T13:39:17.026Z,12.40
2023-05-05T13:41:43.350Z,10.15
2023-05-05T13:44:09.662Z,10.35
2023-05-05T13:46:35.977Z,10.57
2023-05-05T13:49:02.298Z,11.05
2023-05-05T13:51:28.598Z,11.73
2023-05-05T13:53:54.939Z,10.88
2023-05-05T13:56:21.314Z,8.57
2023-05-05T13:58:47.688Z,15.20
2023-05-05T14:01:14.074Z,16.10
2023-05-05T14:03:40.586Z,16.63
2023-05-05T14:06:07.570Z,18.08
2023-05-05T14:08:33.866Z,11.93
2023-05-05T14:11:00.213Z,16.50
2023-05-05T14:13:26.509Z,19.48
2023-05-05T14:15:52.835Z,23.23
2023-05-05T14:18:19.187Z,22.27
2023-05-05T14:20:45.510Z,25.27
2023-05-05T14:23:11.831Z,22.45
2023-05-05T14:25:38.599Z,21.50
2023-05-05T14:28:04.916Z,22.08
2023-05-05T14:30:31.227Z,23.70
2023-05-05T14:32:57.537Z,25.25
2023-05-05T14:35:23.878Z,22.98
2023-05-05T14:37:50.193Z,19.45
2023-05-05T14:40:16.508Z,21.83
2023-05-05T14:42:42.876Z,25.05
2023-05-05T14:45:09.816Z,23.73
2023-05-05T14:47:36.289Z,20.25
2023-05-05T14:50:02.687Z,16.73
2023-05-05T14:52:28.989Z,23.33
2023-05-05T14:54:55.306Z,20.25
2023-05-05T14:57:21.731Z,28.73
2023-05-05T14:59:48.040Z,17.73
2023-05-05T15:02:14.324Z,8.05
2023-05-05T15:04:40.636Z,6.28
2023-05-05T15:07:06.951Z,7.10
2023-05-05T15:09:33.266Z,5.78
2023-05-05T15:11:59.550Z,6.32
2023-05-05T15:14:25.846Z,6.40
2023-05-05T15:16:52.132Z,4.70
2023-05-05T15:19:18.438Z,3.88
2023-05-05T15:21:44.745Z,4.05
2023-05-05T15:24:11.126Z,4.82
2023-05-05T15:26:37.428Z,13.40
2023-05-05T15:29:03.736Z,5.25
2023-05-05T15:31:30.201Z,3.35
2023-05-05T15:33:56.583Z,3.83
2023-05-05T15:36:22.970Z,3.95
2023-05-05T15:38:49.291Z,4.80
2023-05-05T15:41:15.657Z,4.15
2023-05-05T15:43:41.963Z,4.60
2023-05-05T15:46:08.251Z,4.55
2023-05-05T15:48:34.549Z,6.30
2023-05-05T15:51:00.974Z,7.20
2023-05-05T15:53:27.278Z,4.30
2023-05-05T15:55:53.580Z,4.05
2023-05-05T15:58:19.893Z,4.25
2023-05-05T16:00:46.196Z,3.35
2023-05-05T16:03:12.608Z,5.80
2023-05-05T16:05:38.986Z,9.23
2023-05-05T16:08:05.385Z,4.68
2023-05-05T16:10:31.676Z,8.00
2023-05-05T16:12:58.002Z,6.43
2023-05-05T16:15:24.311Z,6.43
2023-05-05T16:17:50.614Z,5.57
2023-05-05T16:20:17.009Z,5.55
2023-05-05T16:22:43.329Z,4.90
2023-05-05T16:25:10.116Z,6.88
2023-05-05T16:27:36.627Z,4.75
2023-05-05T16:30:03.149Z,9.55
2023-05-05T16:32:29.549Z,7.57
2023-05-05T16:34:55.840Z,8.38
2023-05-05T16:37:22.170Z,5.10
2023-05-05T16:39:48.666Z,4.78
2023-05-05T16:42:15.026Z,4.03
2023-05-05T16:44:41.317Z,5.03
2023-05-05T16:47:07.613Z,8.20
2023-05-05T16:49:33.908Z,6.13
2023-05-05T16:52:00.201Z,4.45
2023-05-05T16:54:26.498Z,5.47
2023-05-05T16:56:52.817Z,5.75
2023-05-05T16:59:19.166Z,9.90
2023-05-05T17:01:45.536Z,4.40
2023-05-05T17:04:11.984Z,3.55
2023-05-05T17:06:38.401Z,4.57
2023-05-05T17:09:04.745Z,2.78
2023-05-05T17:11:31.057Z,3.47
2023-05-05T17:13:57.354Z,3.38
2023-05-05T17:16:23.755Z,5.30
2023-05-05T17:18:50.117Z,2.67
2023-05-05T17:21:16.429Z,2.17
2023-05-05T17:23:42.732Z,9.48
2023-05-05T17:26:09.055Z,6.72
2023-05-05T17:28:35.340Z,2.08
2023-05-05T17:31:01.662Z,2.33
2023-05-05T17:33:27.951Z,3.50
2023-05-05T17:35:54.452Z,2.30
2023-05-05T17:38:20.770Z,2.83
2023-05-05T17:40:47.184Z,3.50
2023-05-05T17:43:13.505Z,5.35
2023-05-05T17:45:39.857Z,3.10
2023-05-05T17:48:06.391Z,4.90
2023-05-05T17:50:32.703Z,2.67
2023-05-05T17:52:59.020Z,2.13
2023-05-05T17:55:25.329Z,4.22
2023-05-05T17:57:51.633Z,3.45
2023-05-05T18:00:18.369Z,6.47
2023-05-05T18:02:44.788Z,3.50
2023-05-05T18:05:11.389Z,4.22
2023-05-05T18:07:37.894Z,4.97
2023-05-05T18:10:06.149Z,3.70
2023-05-05T18:12:32.501Z,3.70
2023-05-05T18:14:58.829Z,5.18
2023-05-05T18:17:25.196Z,2.20
2023-05-05T18:19:51.519Z,7.60
2023-05-05T18:22:17.865Z,4.47
2023-05-05T18:24:46.023Z,4.47
2023-05-05T18:27:12.429Z,2.80
2023-05-05T18:29:38.804Z,5.13
2023-05-05T18:32:06.116Z,3.45
2023-05-05T18:34:32.562Z,7.15
2023-05-05T18:36:58.858Z,8.07
2023-05-05T18:39:25.188Z,6.00
2023-05-05T18:41:51.561Z,4.60
2023-05-05T18:44:18.984Z,4.63
2023-05-05T18:46:45.453Z,5.43
2023-05-05T18:49:11.785Z,4.43
2023-05-05T18:51:38.111Z,4.28
2023-05-05T18:54:04.484Z,4.53
2023-05-05T18:56:30.847Z,2.75
2023-05-05T18:58:57.265Z,4.72
2023-05-05T19:01:23.598Z,4.88
2023-05-05T19:03:50.044Z,4.55
2023-05-05T19:06:17.097Z,4.15
2023-05-05T19:08:44.409Z,3.85
2023-05-05T19:11:10.847Z,3.88
2023-05-05T19:16:09.879Z,5.38
2023-05-05T19:18:36.233Z,6.57
2023-05-05T19:21:02.643Z,5.70
2023-05-05T19:23:29.004Z,5.25
2023-05-05T19:25:55.398Z,5.65
2023-05-05T19:28:21.714Z,5.28
2023-05-05T19:30:48.114Z,6.68
2023-05-05T19:33:17.720Z,4.72
2023-05-05T19:35:44.319Z,6.35
2023-05-05T19:38:10.711Z,5.15
2023-05-05T19:40:38.275Z,5.72
2023-05-05T19:43:04.806Z,5.50
2023-05-05T19:45:31.549Z,5.75
2023-05-05T19:47:58.032Z,5.45
2023-05-05T19:50:24.484Z,7.32
2023-05-05T19:52:50.820Z,6.32
2023-05-05T19:55:18.196Z,6.63
2023-05-05T19:57:44.496Z,6.63
2023-05-05T20:00:11.541Z,6.45
2023-05-05T20:02:38.121Z,7.13
2023-05-05T20:05:04.807Z,7.30
2023-05-05T20:07:31.145Z,5.95
2023-05-05T20:09:58.514Z,9.02
2023-05-05T20:12:24.995Z,8.82
2023-05-05T20:14:51.372Z,10.18
2023-05-05T20:17:17.684Z,10.05
2023-05-05T20:19:44.024Z,9.40
2023-05-05T20:22:10.339Z,9.32
2023-05-05T20:24:36.652Z,10.43
2023-05-05T20:27:03.010Z,10.85
2023-05-05T20:29:29.313Z,10.30
2023-05-05T20:31:55.759Z,12.57
2023-05-05T20:34:22.136Z,11.23
2023-05-05T20:36:48.499Z,10.77
2023-05-05T20:39:15.287Z,11.90
2023-05-05T20:41:41.732Z,12.63
2023-05-05T20:44:08.076Z,12.70
2023-05-05T20:46:34.507Z,10.93
2023-05-05T20:49:00.838Z,9.60
2023-05-05T20:51:27.154Z,11.50
2023-05-05T20:53:53.473Z,14.45
2023-05-05T20:56:19.772Z,12.30
2023-05-05T20:58:46.087Z,13.05
2023-05-05T21:01:12.446Z,13.55
2023-05-05T21:03:38.813Z,15.18
2023-05-05T21:06:05.351Z,14.02
2023-05-05T21:08:31.690Z,14.57
2023-05-05T21:10:57.985Z,17.65
2023-05-05T21:13:24.337Z,18.35
2023-05-05T21:15:50.673Z,18.38
2023-05-05T21:18:16.993Z,23.80
2023-05-05T21:20:43.301Z,20.63
2023-05-05T21:23:09.646Z,20.02
2023-05-05T21:25:36.081Z,21.52
2023-05-05T21:28:02.415Z,22.75
2023-05-05T21:30:28.835Z,20.13
2023-05-05T21:32:55.215Z,23.65
2023-05-05T21:35:21.539Z,20.80
2023-05-05T21:37:48.644Z,19.38
2023-05-05T21:40:15.026Z,23.13
2023-05-05T21:42:42.281Z,23.17
2023-05-05T21:45:10.623Z,23.13
2023-05-05T21:47:37.063Z,29.50
2023-05-05T21:50:03.557Z,26.80
2023-05-05T21:52:29.871Z,30.45
2023-05-05T21:54:56.176Z,29.60
2023-05-05T21:57:22.474Z,29.00
2023-05-05T21:59:48.805Z,33.28
2023-05-05T22:02:15.108Z,32.90
2023-05-05T22:04:41.419Z,28.75
2023-05-05T22:07:07.733Z,29.80
2023-05-05T22:09:34.035Z,29.27
2023-05-05T22:12:00.357Z,30.58
2023-05-05T22:14:26.708Z,28.83
2023-05-05T22:16:53.035Z,27.20
2023-05-05T22:19:19.360Z,27.05
2023-05-05T22:21:45.649Z,27.23
2023-05-05T22:24:11.997Z,28.08
2023-05-05T22:26:38.301Z,29.25
2023-05-05T22:29:04.617Z,28.80
2023-05-05T22:31:31.070Z,25.45
2023-05-05T22:33:57.440Z,29.27
2023-05-05T22:36:23.909Z,27.75
2023-05-05T22:38:50.223Z,29.00
2023-05-05T22:41:16.586Z,26.88
2023-05-05T22:43:42.906Z,29.23
2023-05-05T22:46:09.198Z,27.60
2023-05-05T22:48:35.560Z,26.85
2023-05-05T22:51:01.900Z,26.83
2023-05-05T22:53:28.226Z,29.08
2023-05-05T22:55:54.536Z,32.17
2023-05-05T22:58:20.986Z,32.15
2023-05-05T23:00:47.376Z,33.38
2023-05-05T23:03:13.809Z,32.97
2023-05-05T23:05:40.097Z,31.02
2023-05-05T23:08:06.435Z,29.65
2023-05-05T23:10:32.732Z,32.67
2023-05-05T23:12:59.052Z,31.30
2023-05-05T23:15:25.387Z,32.88
2023-05-05T23:17:51.746Z,37.60
2023-05-05T23:20:18.117Z,37.38
2023-05-05T23:22:44.450Z,34.50
2023-05-05T23:25:11.008Z,36.35
2023-05-05T23:27:38.927Z,34.15
2023-05-05T23:30:06.674Z,32.03
2023-05-05T23:32:33.165Z,33.38
2023-05-05T23:34:59.513Z,29.08
2023-05-05T23:37:25.820Z,34.92
2023-05-05T23:39:52.124Z,37.83
2023-05-05T23:42:18.426Z,35.75
2023-05-05T23:44:44.740Z,32.92
2023-05-05T23:47:11.050Z,32.08
2023-05-05T23:49:37.798Z,33.45
2023-05-05T23:52:04.370Z,28.67
2023-05-05T23:54:30.771Z,32.55
2023-05-05T23:56:57.079Z,32.95
2023-05-05T23:59:23.369Z,29.65
